Time;durP1;ratioP1;P1;durP2;ratioP2;P2;SDS_P1;SDS_P2;PMS_P1;PMS_P2;Temp;Humidity;BMP_temperature;BMP_pressure;BME280_temperature;BME280_humidity;BME280_pressure;Samples;Min_cycle;Max_cycle;Signal;HPM_P1;HPM_P2
2021/09/21 00:00:30;;;;;;;9.03;6.70;;;;;;;;;;5036487;28;20432;-77
2021/09/21 00:02:56;;;;;;;7.30;6.60;;;;;;;;;;5035921;28;20475;-78
2021/09/21 00:05:22;;;;;;;7.80;6.60;;;;;;;;;;5036510;28;20408;-77
2021/09/21 00:07:49;;;;;;;7.93;6.60;;;;;;;;;;5036447;28;20417;-78
2021/09/21 00:10:15;;;;;;;7.30;6.40;;;;;;;;;;5018644;28;20465;-77
2021/09/21 00:12:42;;;;;;;8.93;6.47;;;;;;;;;;5035943;28;20749;-79
2021/09/21 00:15:09;;;;;;;10.83;6.07;;;;;;;;;;5036253;28;21066;-77
2021/09/21 00:17:35;;;;;;;7.67;6.50;;;;;;;;;;5036336;28;20498;-78
2021/09/21 00:20:01;;;;;;;6.53;5.93;;;;;;;;;;5036216;28;20413;-78
2021/09/21 00:22:27;;;;;;;7.77;6.53;;;;;;;;;;5018106;28;20483;-78
2021/09/21 00:24:53;;;;;;;7.33;6.50;;;;;;;;;;5018259;28;20916;-79
2021/09/21 00:27:19;;;;;;;8.17;6.43;;;;;;;;;;5035965;28;20427;-77
2021/09/21 00:29:46;;;;;;;7.20;6.10;;;;;;;;;;5035852;28;20940;-77
2021/09/21 00:32:19;;;;;;;10.20;6.30;;;;;;;;;;5035653;28;20952;-78
2021/09/21 00:34:45;;;;;;;9.87;6.27;;;;;;;;;;5035844;28;20999;-77
2021/09/21 00:37:13;;;;;;;6.43;5.73;;;;;;;;;;5018087;28;20435;-78
2021/09/21 00:39:39;;;;;;;7.40;5.73;;;;;;;;;;5035818;28;20405;-77
2021/09/21 00:42:06;;;;;;;7.13;6.43;;;;;;;;;;5035448;28;20463;-78
2021/09/21 00:44:34;;;;;;;6.47;5.77;;;;;;;;;;5035741;28;20409;-77
2021/09/21 00:47:00;;;;;;;8.13;6.30;;;;;;;;;;5035595;28;20839;-78
2021/09/21 00:49:26;;;;;;;7.43;6.30;;;;;;;;;;5035576;28;20401;-78
2021/09/21 00:51:52;;;;;;;7.30;6.60;;;;;;;;;;5017295;28;20929;-77
2021/09/21 00:54:18;;;;;;;10.47;6.80;;;;;;;;;;5035628;28;20747;-77
2021/09/21 00:56:45;;;;;;;9.70;6.47;;;;;;;;;;5035583;28;20524;-77
2021/09/21 00:59:11;;;;;;;6.97;6.13;;;;;;;;;;5035443;28;20466;-78
2021/09/21 01:01:37;;;;;;;9.33;6.30;;;;;;;;;;5035137;28;20527;-78
2021/09/21 01:04:05;;;;;;;6.53;5.90;;;;;;;;;;5035401;28;20413;-78
2021/09/21 01:06:31;;;;;;;7.20;6.60;;;;;;;;;;5017623;28;20558;-77
2021/09/21 01:08:57;;;;;;;6.17;5.57;;;;;;;;;;5035244;28;20405;-78
2021/09/21 01:11:23;;;;;;;8.77;6.43;;;;;;;;;;5034776;28;20499;-78
2021/09/21 01:13:50;;;;;;;6.13;5.47;;;;;;;;;;5017412;28;20765;-77
2021/09/21 01:16:16;;;;;;;8.47;6.07;;;;;;;;;;5017092;28;21035;-78
2021/09/21 01:18:43;;;;;;;11.63;5.57;;;;;;;;;;5017244;28;20479;-77
2021/09/21 01:21:10;;;;;;;5.60;5.10;;;;;;;;;;5034413;28;20413;-78
2021/09/21 01:23:49;;;;;;;6.93;5.60;;;;;;;;;;5034742;28;20519;-78
2021/09/21 01:26:16;;;;;;;5.47;4.97;;;;;;;;;;5034857;28;20784;-77
2021/09/21 01:28:42;;;;;;;8.40;6.63;;;;;;;;;;5034674;28;20963;-79
2021/09/21 01:31:08;;;;;;;5.50;5.00;;;;;;;;;;5034366;28;20828;-78
2021/09/21 01:33:34;;;;;;;8.60;5.90;;;;;;;;;;5034614;28;20453;-79
2021/09/21 01:36:00;;;;;;;6.37;5.20;;;;;;;;;;5034665;28;20511;-78
2021/09/21 01:38:26;;;;;;;6.97;6.27;;;;;;;;;;5016369;28;20413;-78
2021/09/21 01:40:52;;;;;;;6.80;6.10;;;;;;;;;;5034558;28;20436;-77
2021/09/21 01:43:19;;;;;;;7.13;6.03;;;;;;;;;;5034169;28;20424;-77
2021/09/21 01:45:45;;;;;;;6.90;6.27;;;;;;;;;;5034762;28;20401;-78
2021/09/21 01:48:11;;;;;;;7.47;6.20;;;;;;;;;;5034751;28;20411;-78
2021/09/21 01:53:16;;;;;;;8.40;5.70;;;;;;;;;;5035089;28;20472;-78
2021/09/21 02:00:57;;;;;;;7.20;6.40;;;;;;;;;;5034490;28;20421;-79
2021/09/21 02:03:23;;;;;;;7.60;6.90;;;;;;;;;;5033846;28;20941;-77
2021/09/21 02:05:49;;;;;;;7.60;6.53;;;;;;;;;;5034301;28;20397;-78
2021/09/21 02:08:15;;;;;;;9.53;6.40;;;;;;;;;;5034257;28;20401;-77
2021/09/21 02:10:41;;;;;;;9.70;6.50;;;;;;;;;;5033964;28;20430;-77
2021/09/21 02:13:07;;;;;;;6.50;5.90;;;;;;;;;;5033632;28;20979;-77
2021/09/21 02:15:34;;;;;;;6.83;6.00;;;;;;;;;;5033821;28;20406;-78
2021/09/21 02:18:00;;;;;;;6.77;6.17;;;;;;;;;;5016349;28;20464;-78
2021/09/21 02:20:29;;;;;;;7.00;6.30;;;;;;;;;;5033960;28;20384;-77
2021/09/21 02:22:55;;;;;;;8.80;7.30;;;;;;;;;;5033368;28;20456;-78
2021/09/21 02:25:21;;;;;;;7.07;6.30;;;;;;;;;;5033757;28;20409;-77
2021/09/21 02:27:47;;;;;;;7.43;6.03;;;;;;;;;;5033517;28;20421;-78
2021/09/21 02:30:13;;;;;;;6.53;5.83;;;;;;;;;;5033669;28;20911;-78
2021/09/21 02:32:40;;;;;;;7.63;6.80;;;;;;;;;;5033185;28;20490;-77
2021/09/21 02:35:06;;;;;;;6.53;6.00;;;;;;;;;;5016197;28;20428;-78
2021/09/21 02:37:32;;;;;;;8.47;7.27;;;;;;;;;;5033750;28;20460;-78
2021/09/21 02:40:00;;;;;;;8.93;6.90;;;;;;;;;;5033572;28;20409;-78
2021/09/21 02:42:26;;;;;;;8.60;6.50;;;;;;;;;;5033135;28;20459;-78
2021/09/21 02:44:52;;;;;;;8.00;6.63;;;;;;;;;;5033436;28;20411;-77
2021/09/21 02:47:18;;;;;;;7.80;5.97;;;;;;;;;;5032891;28;20420;-78
2021/09/21 02:49:44;;;;;;;8.70;6.30;;;;;;;;;;5032844;28;20421;-78
2021/09/21 02:52:10;;;;;;;9.10;6.40;;;;;;;;;;5032482;28;20495;-78
2021/09/21 02:54:36;;;;;;;8.17;6.00;;;;;;;;;;5015826;28;20417;-78
2021/09/21 02:57:02;;;;;;;8.97;6.23;;;;;;;;;;5033382;28;20464;-77
2021/09/21 02:59:28;;;;;;;7.57;6.30;;;;;;;;;;5033251;28;20814;-78
2021/09/21 03:01:54;;;;;;;6.70;6.10;;;;;;;;;;5015134;28;20433;-78
2021/09/21 03:04:25;;;;;;;11.80;7.17;;;;;;;;;;5033299;28;20444;-77
2021/09/21 03:06:58;;;;;;;6.40;5.80;;;;;;;;;;5033419;28;20417;-78
2021/09/21 03:12:17;;;;;;;9.67;6.10;;;;;;;;;;5032768;28;20519;-78
2021/09/21 03:17:28;;;;;;;6.73;6.07;;;;;;;;;;5033105;28;20479;-77
2021/09/21 03:19:54;;;;;;;7.23;6.37;;;;;;;;;;5032880;28;20409;-78
2021/09/21 03:22:22;;;;;;;8.33;6.27;;;;;;;;;;5032478;28;20460;-78
2021/09/21 03:24:48;;;;;;;6.43;5.80;;;;;;;;;;5015231;28;20859;-78
2021/09/21 03:27:15;;;;;;;6.90;6.20;;;;;;;;;;5032903;28;20427;-78
2021/09/21 03:29:41;;;;;;;18.33;7.00;;;;;;;;;;5032950;28;20454;-77
2021/09/21 03:32:07;;;;;;;6.47;5.87;;;;;;;;;;5032579;28;20437;-79
2021/09/21 03:34:36;;;;;;;8.03;6.63;;;;;;;;;;5032751;28;20491;-78
2021/09/21 03:37:03;;;;;;;6.57;5.87;;;;;;;;;;5032822;28;20464;-77
2021/09/21 03:39:29;;;;;;;6.70;6.10;;;;;;;;;;5032849;28;20421;-78
2021/09/21 03:41:55;;;;;;;7.60;6.27;;;;;;;;;;5014800;28;20441;-78
2021/09/21 03:44:22;;;;;;;7.73;5.87;;;;;;;;;;5015002;28;20429;-79
2021/09/21 03:46:48;;;;;;;8.97;6.20;;;;;;;;;;5032838;28;20468;-77
2021/09/21 03:49:14;;;;;;;8.50;6.73;;;;;;;;;;5032883;28;20889;-77
2021/09/21 03:51:40;;;;;;;7.33;6.53;;;;;;;;;;5032386;28;20443;-77
2021/09/21 03:54:09;;;;;;;6.10;5.50;;;;;;;;;;5032951;28;20417;-78
2021/09/21 03:56:36;;;;;;;8.03;5.60;;;;;;;;;;5032686;28;20457;-78
2021/09/21 03:59:02;;;;;;;10.30;6.03;;;;;;;;;;5032858;28;20809;-78
2021/09/21 04:01:28;;;;;;;7.13;4.70;;;;;;;;;;5032772;28;20428;-78
2021/09/21 04:03:54;;;;;;;6.67;5.23;;;;;;;;;;5036408;28;20900;-78
2021/09/21 04:06:20;;;;;;;6.60;6.00;;;;;;;;;;5018578;28;20417;-77
2021/09/21 04:08:46;;;;;;;7.20;6.40;;;;;;;;;;5036307;28;20439;-78
2021/09/21 04:11:12;;;;;;;8.43;6.17;;;;;;;;;;5018162;28;20945;-78
2021/09/21 04:13:38;;;;;;;6.87;6.17;;;;;;;;;;5018620;28;20457;-78
2021/09/21 04:16:05;;;;;;;9.00;6.27;;;;;;;;;;5036072;28;20388;-78
2021/09/21 04:18:31;;;;;;;6.90;6.23;;;;;;;;;;5036191;28;20467;-78
2021/09/21 04:20:57;;;;;;;6.77;6.07;;;;;;;;;;5035751;28;20421;-78
2021/09/21 04:23:23;;;;;;;8.03;5.53;;;;;;;;;;5017948;28;20455;-77
2021/09/21 04:25:49;;;;;;;6.00;5.40;;;;;;;;;;5036074;28;20503;-78
2021/09/21 04:28:15;;;;;;;10.50;6.00;;;;;;;;;;5035934;28;20413;-77
2021/09/21 04:30:43;;;;;;;6.10;5.50;;;;;;;;;;5017913;28;20416;-78
2021/09/21 04:33:09;;;;;;;10.40;5.57;;;;;;;;;;5017964;28;20967;-78
2021/09/21 04:35:35;;;;;;;5.80;5.20;;;;;;;;;;5035688;28;20413;-78
2021/09/21 04:38:01;;;;;;;5.30;4.77;;;;;;;;;;5001596;28;20503;-78
2021/09/21 04:40:27;;;;;;;5.67;4.87;;;;;;;;;;5035608;28;20822;-78
2021/09/21 04:42:53;;;;;;;5.20;4.47;;;;;;;;;;5035254;28;20425;-77
2021/09/21 04:45:19;;;;;;;7.70;6.00;;;;;;;;;;5001591;28;20470;-77
2021/09/21 04:47:45;;;;;;;6.27;5.63;;;;;;;;;;5035776;28;20817;-77
2021/09/21 04:50:11;;;;;;;5.90;5.00;;;;;;;;;;5035808;28;20412;-78
2021/09/21 04:52:37;;;;;;;6.03;5.10;;;;;;;;;;5035121;28;20531;-78
2021/09/21 04:55:04;;;;;;;8.03;5.27;;;;;;;;;;5017919;28;20459;-78
2021/09/21 04:57:30;;;;;;;6.17;4.63;;;;;;;;;;5035374;28;20873;-78
2021/09/21 04:59:56;;;;;;;6.40;4.87;;;;;;;;;;5035324;28;20413;-77
2021/09/21 05:02:22;;;;;;;5.47;4.90;;;;;;;;;;5034740;28;20532;-77
2021/09/21 05:04:48;;;;;;;6.83;4.83;;;;;;;;;;5035096;28;20416;-78
2021/09/21 05:07:14;;;;;;;6.27;4.90;;;;;;;;;;5035277;28;20898;-78
2021/09/21 05:09:40;;;;;;;6.00;5.13;;;;;;;;;;5035550;28;20496;-77
2021/09/21 05:12:06;;;;;;;4.30;3.90;;;;;;;;;;5034971;28;20520;-77
2021/09/21 05:14:32;;;;;;;6.03;5.07;;;;;;;;;;5034264;28;20413;-78
2021/09/21 05:16:59;;;;;;;6.57;5.43;;;;;;;;;;5034929;28;20491;-78
2021/09/21 05:19:25;;;;;;;6.50;5.30;;;;;;;;;;5017311;28;20829;-77
2021/09/21 05:21:51;;;;;;;6.03;4.87;;;;;;;;;;5016722;28;20523;-78
2021/09/21 05:24:17;;;;;;;8.07;5.73;;;;;;;;;;5035188;28;20544;-77
2021/09/21 05:26:43;;;;;;;5.10;4.60;;;;;;;;;;5034841;28;20801;-78
2021/09/21 05:29:09;;;;;;;5.57;5.07;;;;;;;;;;5000615;28;20435;-78
2021/09/21 05:31:35;;;;;;;5.50;4.80;;;;;;;;;;5016712;28;20502;-77
2021/09/21 05:34:01;;;;;;;6.57;5.07;;;;;;;;;;5034784;28;20417;-78
2021/09/21 05:36:27;;;;;;;6.70;5.00;;;;;;;;;;5034519;28;20456;-78
2021/09/21 05:38:53;;;;;;;5.23;4.63;;;;;;;;;;5034610;28;20404;-77
2021/09/21 05:41:19;;;;;;;6.10;4.80;;;;;;;;;;5033966;28;20496;-78
2021/09/21 05:43:45;;;;;;;6.10;5.07;;;;;;;;;;5017108;28;20416;-76
2021/09/21 05:46:11;;;;;;;7.00;5.90;;;;;;;;;;5034519;28;20413;-77
2021/09/21 05:48:38;;;;;;;6.87;5.47;;;;;;;;;;5034555;28;20459;-78
2021/09/21 05:51:04;;;;;;;5.30;4.80;;;;;;;;;;5034145;28;20401;-77
2021/09/21 05:53:30;;;;;;;6.00;5.27;;;;;;;;;;5034184;28;20432;-78
2021/09/21 05:55:55;;;;;;;7.37;5.60;;;;;;;;;;5034358;28;20417;-77
2021/09/21 05:58:21;;;;;;;7.30;5.70;;;;;;;;;;5016845;28;20424;-77
2021/09/21 06:00:48;;;;;;;6.73;5.03;;;;;;;;;;5034192;28;20941;-77
2021/09/21 06:03:14;;;;;;;7.20;5.67;;;;;;;;;;5033815;28;20800;-78
2021/09/21 06:05:40;;;;;;;7.17;4.40;;;;;;;;;;5016573;28;20905;-78
2021/09/21 06:08:06;;;;;;;7.03;4.93;;;;;;;;;;5016809;28;20413;-77
2021/09/21 06:10:32;;;;;;;8.43;4.53;;;;;;;;;;5034042;28;20424;-78
2021/09/21 06:12:58;;;;;;;6.47;4.50;;;;;;;;;;5016053;28;20526;-76
2021/09/21 06:15:24;;;;;;;5.53;5.00;;;;;;;;;;5033850;28;20901;-76
2021/09/21 06:17:50;;;;;;;6.17;5.00;;;;;;;;;;5033763;28;20465;-75
2021/09/21 06:20:17;;;;;;;6.93;5.13;;;;;;;;;;5033490;28;20959;-75
2021/09/21 06:22:44;;;;;;;5.40;4.43;;;;;;;;;;5032870;28;20536;-74
2021/09/21 06:25:11;;;;;;;7.87;5.40;;;;;;;;;;5033199;28;20417;-76
2021/09/21 06:27:37;;;;;;;5.20;4.43;;;;;;;;;;5033045;28;20491;-75
2021/09/21 06:30:04;;;;;;;9.23;4.90;;;;;;;;;;5033154;28;20421;-75
2021/09/21 06:32:30;;;;;;;6.50;5.20;;;;;;;;;;5033342;28;20847;-74
2021/09/21 06:34:56;;;;;;;6.07;5.30;;;;;;;;;;5033623;28;20417;-77
2021/09/21 06:37:22;;;;;;;7.40;4.77;;;;;;;;;;5033401;28;20452;-75
2021/09/21 06:39:48;;;;;;;4.50;3.97;;;;;;;;;;5033086;28;20409;-78
2021/09/21 06:42:14;;;;;;;4.93;4.43;;;;;;;;;;5033131;28;20991;-78
2021/09/21 06:44:40;;;;;;;7.57;4.43;;;;;;;;;;5033426;28;20436;-78
2021/09/21 06:47:06;;;;;;;6.63;4.40;;;;;;;;;;5033478;28;20916;-77
2021/09/21 06:49:32;;;;;;;6.13;4.33;;;;;;;;;;5015815;28;20429;-76
2021/09/21 06:51:58;;;;;;;4.70;4.20;;;;;;;;;;4999138;28;20967;-78
2021/09/21 06:54:24;;;;;;;6.00;3.97;;;;;;;;;;5033474;28;20784;-78
2021/09/21 06:56:50;;;;;;;4.87;3.77;;;;;;;;;;5033404;28;20836;-77
2021/09/21 06:59:17;;;;;;;6.77;4.30;;;;;;;;;;5033375;28;20405;-77
2021/09/21 07:01:43;;;;;;;7.67;4.50;;;;;;;;;;5032827;28;20429;-78
2021/09/21 07:04:08;;;;;;;6.93;4.20;;;;;;;;;;5033201;28;20932;-77
2021/09/21 07:06:34;;;;;;;4.40;3.93;;;;;;;;;;5033210;28;20508;-77
2021/09/21 07:09:00;;;;;;;4.80;4.30;;;;;;;;;;5033126;28;20394;-78
2021/09/21 07:11:27;;;;;;;4.60;3.70;;;;;;;;;;5032748;28;20445;-77
2021/09/21 07:13:54;;;;;;;3.83;3.10;;;;;;;;;;5033093;28;20412;-77
2021/09/21 07:16:20;;;;;;;5.50;3.80;;;;;;;;;;5032852;28;20467;-77
2021/09/21 07:18:46;;;;;;;3.20;2.67;;;;;;;;;;5033297;28;20488;-77
2021/09/21 07:21:12;;;;;;;3.90;3.27;;;;;;;;;;5032830;28;20776;-77
2021/09/21 07:23:38;;;;;;;3.90;3.33;;;;;;;;;;5032951;28;20436;-77
2021/09/21 07:26:08;;;;;;;4.40;3.00;;;;;;;;;;5032927;28;20409;-76
2021/09/21 07:28:35;;;;;;;5.80;3.37;;;;;;;;;;5033287;28;20400;-76
2021/09/21 07:31:01;;;;;;;5.43;3.10;;;;;;;;;;5033042;28;20463;-77
2021/09/21 07:33:27;;;;;;;5.10;3.30;;;;;;;;;;5015167;28;21000;-78
2021/09/21 07:35:53;;;;;;;3.27;2.77;;;;;;;;;;5032813;28;20772;-78
2021/09/21 07:38:19;;;;;;;3.33;2.80;;;;;;;;;;5036261;28;20443;-76
2021/09/21 07:40:46;;;;;;;3.17;2.87;;;;;;;;;;5019292;28;20431;-78
2021/09/21 07:43:12;;;;;;;5.50;2.83;;;;;;;;;;5036564;28;20551;-77
2021/09/21 07:45:38;;;;;;;4.00;3.30;;;;;;;;;;5019247;28;20436;-77
2021/09/21 07:48:04;;;;;;;4.80;2.50;;;;;;;;;;5036595;28;20432;-78
2021/09/21 07:50:30;;;;;;;4.60;2.77;;;;;;;;;;5036694;28;20420;-78
2021/09/21 07:52:57;;;;;;;3.27;2.97;;;;;;;;;;5036253;28;20896;-77
2021/09/21 07:55:23;;;;;;;3.10;2.80;;;;;;;;;;5018810;28;20784;-77
2021/09/21 07:57:49;;;;;;;3.30;2.80;;;;;;;;;;5036547;28;20431;-77
2021/09/21 08:00:17;;;;;;;3.30;2.63;;;;;;;;;;5036650;28;20448;-78
2021/09/21 08:02:44;;;;;;;3.17;2.80;;;;;;;;;;5035959;28;20421;-78
2021/09/21 08:05:10;;;;;;;4.90;3.53;;;;;;;;;;5018800;28;20423;-78
2021/09/21 08:07:37;;;;;;;4.10;3.27;;;;;;;;;;5036530;28;20435;-77
2021/09/21 08:10:04;;;;;;;5.03;2.67;;;;;;;;;;5018695;28;20424;-78
2021/09/21 08:12:30;;;;;;;4.90;2.97;;;;;;;;;;5035931;28;20432;-78
2021/09/21 08:14:57;;;;;;;4.50;2.80;;;;;;;;;;5036347;28;20460;-77
2021/09/21 08:17:25;;;;;;;3.97;2.53;;;;;;;;;;5036173;28;20456;-78
2021/09/21 08:19:51;;;;;;;3.03;2.63;;;;;;;;;;5036104;28;20405;-77
2021/09/21 08:22:18;;;;;;;5.70;3.10;;;;;;;;;;5035504;28;20547;-77
2021/09/21 08:24:44;;;;;;;3.10;2.23;;;;;;;;;;5036026;28;20444;-78
2021/09/21 08:27:11;;;;;;;5.23;3.10;;;;;;;;;;5036094;28;20500;-78
2021/09/21 08:29:37;;;;;;;3.93;2.47;;;;;;;;;;5035912;28;20413;-77
2021/09/21 08:32:03;;;;;;;3.10;2.43;;;;;;;;;;5035555;28;20419;-77
2021/09/21 08:34:29;;;;;;;3.60;2.77;;;;;;;;;;5035697;28;20418;-78
2021/09/21 08:36:55;;;;;;;5.40;2.77;;;;;;;;;;5035696;28;20431;-78
2021/09/21 08:39:21;;;;;;;2.47;2.20;;;;;;;;;;5035815;28;20409;-76
2021/09/21 08:41:48;;;;;;;2.73;2.53;;;;;;;;;;5035238;28;20429;-77
2021/09/21 08:44:14;;;;;;;3.17;2.40;;;;;;;;;;5035614;28;20380;-77
2021/09/21 08:46:40;;;;;;;2.80;2.10;;;;;;;;;;5035585;28;20447;-77
2021/09/21 08:49:06;;;;;;;2.60;2.37;;;;;;;;;;5034420;28;20500;-77
2021/09/21 08:51:32;;;;;;;1.97;1.83;;;;;;;;;;5035149;28;20431;-77
2021/09/21 08:53:58;;;;;;;3.10;2.60;;;;;;;;;;5018060;28;20880;-78
2021/09/21 08:56:24;;;;;;;6.57;1.97;;;;;;;;;;5035408;28;20952;-76
2021/09/21 08:59:01;;;;;;;3.40;2.50;;;;;;;;;;5035305;28;20860;-78
2021/09/21 09:01:37;;;;;;;6.90;2.40;;;;;;;;;;5035220;28;20425;-77
2021/09/21 09:04:03;;;;;;;1.60;1.50;;;;;;;;;;5035379;28;20745;-77
2021/09/21 09:06:29;;;;;;;2.23;1.97;;;;;;;;;;5035322;28;20401;-77
2021/09/21 09:08:55;;;;;;;3.30;1.80;;;;;;;;;;5017472;28;20977;-77
2021/09/21 09:11:22;;;;;;;3.50;2.10;;;;;;;;;;5034946;28;20467;-77
2021/09/21 09:13:53;;;;;;;2.63;1.80;;;;;;;;;;5035235;28;20409;-78
2021/09/21 09:16:20;;;;;;;3.53;1.93;;;;;;;;;;5034989;28;20452;-77
2021/09/21 09:18:49;;;;;;;3.33;2.07;;;;;;;;;;5035255;28;20456;-77
2021/09/21 09:21:18;;;;;;;2.07;1.90;;;;;;;;;;5017063;28;20841;-77
2021/09/21 09:23:45;;;;;;;3.80;2.30;;;;;;;;;;5035100;28;20437;-79
2021/09/21 09:26:12;;;;;;;3.90;2.20;;;;;;;;;;5035088;28;20401;-77
2021/09/21 09:28:39;;;;;;;2.97;1.90;;;;;;;;;;5034831;28;20539;-77
2021/09/21 09:31:04;;;;;;;3.20;2.10;;;;;;;;;;5034408;28;20412;-77
2021/09/21 09:33:33;;;;;;;3.40;1.97;;;;;;;;;;5034616;28;20409;-78
2021/09/21 09:36:00;;;;;;;3.63;1.70;;;;;;;;;;5017075;28;20417;-78
2021/09/21 09:38:26;;;;;;;2.30;2.10;;;;;;;;;;5016927;28;20413;-78
2021/09/21 09:40:56;;;;;;;5.17;2.60;;;;;;;;;;5016998;28;20401;-78
2021/09/21 09:43:23;;;;;;;3.10;2.37;;;;;;;;;;5034091;28;20425;-77
2021/09/21 09:45:51;;;;;;;6.23;2.17;;;;;;;;;;5034547;28;20412;-76
2021/09/21 09:48:18;;;;;;;2.93;1.90;;;;;;;;;;5034575;28;20397;-77
2021/09/21 09:50:45;;;;;;;2.33;2.07;;;;;;;;;;5034826;28;20789;-78
2021/09/21 09:53:16;;;;;;;3.33;2.30;;;;;;;;;;5033876;28;20868;-78
2021/09/21 09:55:44;;;;;;;4.67;2.00;;;;;;;;;;5034274;28;20401;-78
2021/09/21 09:58:10;;;;;;;5.90;2.27;;;;;;;;;;5034230;28;20461;-78
2021/09/21 10:00:36;;;;;;;2.30;2.10;;;;;;;;;;5034024;28;20796;-77
2021/09/21 10:03:03;;;;;;;2.77;2.57;;;;;;;;;;5034087;28;20491;-78
2021/09/21 10:05:30;;;;;;;3.83;2.10;;;;;;;;;;5016511;28;20415;-77
2021/09/21 10:07:57;;;;;;;2.77;2.10;;;;;;;;;;5034337;28;20941;-77
2021/09/21 10:10:24;;;;;;;4.67;2.00;;;;;;;;;;5034136;28;20449;-77
2021/09/21 10:12:50;;;;;;;3.60;2.10;;;;;;;;;;5033604;28;20760;-77
2021/09/21 10:15:16;;;;;;;2.50;2.07;;;;;;;;;;5033829;28;20416;-76
2021/09/21 10:17:50;;;;;;;3.00;2.23;;;;;;;;;;5000042;28;20472;-77
2021/09/21 10:20:16;;;;;;;2.50;2.30;;;;;;;;;;5033966;28;20405;-77
2021/09/21 10:22:50;;;;;;;3.23;1.93;;;;;;;;;;5033530;28;20460;-77
2021/09/21 10:25:16;;;;;;;2.90;1.97;;;;;;;;;;5033719;28;20405;-76
2021/09/21 10:27:42;;;;;;;4.00;2.00;;;;;;;;;;5033612;28;20929;-77
2021/09/21 10:30:10;;;;;;;5.30;2.13;;;;;;;;;;5033754;28;20470;-78
2021/09/21 10:32:43;;;;;;;1.90;1.80;;;;;;;;;;5033374;28;20429;-77
2021/09/21 10:35:10;;;;;;;2.90;2.07;;;;;;;;;;5033604;28;20423;-78
2021/09/21 10:37:37;;;;;;;4.30;2.40;;;;;;;;;;5033608;28;20564;-76
2021/09/21 10:40:05;;;;;;;2.97;2.00;;;;;;;;;;5033446;28;20455;-78
2021/09/21 10:42:31;;;;;;;3.57;2.07;;;;;;;;;;5033078;28;20467;-78
2021/09/21 10:44:59;;;;;;;2.17;2.00;;;;;;;;;;5033506;28;20405;-78
2021/09/21 10:47:27;;;;;;;2.90;2.20;;;;;;;;;;5033343;28;20495;-77
2021/09/21 10:49:53;;;;;;;2.60;2.30;;;;;;;;;;5033275;28;20500;-78
2021/09/21 10:52:25;;;;;;;3.23;2.27;;;;;;;;;;5032971;28;20774;-78
2021/09/21 10:54:52;;;;;;;2.60;1.80;;;;;;;;;;5033401;28;20404;-78
2021/09/21 10:57:29;;;;;;;3.63;1.50;;;;;;;;;;5033433;28;20948;-78
2021/09/21 10:59:58;;;;;;;2.53;2.33;;;;;;;;;;5033334;28;20840;-79
2021/09/21 11:02:25;;;;;;;3.47;2.20;;;;;;;;;;5033100;28;20478;-78
2021/09/21 11:04:51;;;;;;;3.40;2.03;;;;;;;;;;5033317;28;20398;-77
2021/09/21 11:07:17;;;;;;;2.13;1.93;;;;;;;;;;5033412;28;20486;-78
2021/09/21 11:09:50;;;;;;;2.80;2.40;;;;;;;;;;5033173;28;20404;-78
2021/09/21 11:12:16;;;;;;;2.70;2.23;;;;;;;;;;5032230;28;20487;-77
2021/09/21 11:14:43;;;;;;;2.50;2.30;;;;;;;;;;5033162;28;20503;-78
2021/09/21 11:17:11;;;;;;;2.43;2.17;;;;;;;;;;5015245;28;20827;-76
2021/09/21 11:19:37;;;;;;;2.60;2.30;;;;;;;;;;5033093;28;20500;-78
2021/09/21 11:22:08;;;;;;;3.63;2.50;;;;;;;;;;5015494;28;20503;-78
2021/09/21 11:24:35;;;;;;;2.50;2.07;;;;;;;;;;5033254;28;20455;-77
2021/09/21 11:27:02;;;;;;;5.13;2.30;;;;;;;;;;5033098;28;20915;-78
2021/09/21 11:29:29;;;;;;;4.60;2.20;;;;;;;;;;5033138;28;20769;-77
2021/09/21 11:31:55;;;;;;;2.10;1.90;;;;;;;;;;5015201;28;20448;-77
2021/09/21 11:34:21;;;;;;;3.63;2.23;;;;;;;;;;5033014;28;20420;-77
2021/09/21 11:36:51;;;;;;;2.40;2.17;;;;;;;;;;5032941;28;20863;-78
2021/09/21 11:39:18;;;;;;;3.60;2.17;;;;;;;;;;5032948;28;20412;-78
2021/09/21 11:41:44;;;;;;;2.97;2.40;;;;;;;;;;5032574;28;20429;-78
2021/09/21 11:44:10;;;;;;;3.20;1.90;;;;;;;;;;5032771;28;20496;-78
2021/09/21 11:46:36;;;;;;;3.60;2.20;;;;;;;;;;5032895;28;20920;-77
2021/09/21 11:49:03;;;;;;;4.67;2.90;;;;;;;;;;5032903;28;20413;-78
2021/09/21 11:51:34;;;;;;;3.83;2.20;;;;;;;;;;5032471;28;20432;-77
2021/09/21 11:54:00;;;;;;;2.10;1.90;;;;;;;;;;5032814;28;20405;-77
2021/09/21 11:56:26;;;;;;;2.90;2.30;;;;;;;;;;5032725;28;20538;-78
2021/09/21 11:58:59;;;;;;;2.70;2.50;;;;;;;;;;5032775;28;20869;-77
2021/09/21 12:01:25;;;;;;;5.90;2.43;;;;;;;;;;5032400;28;20420;-78
2021/09/21 12:03:53;;;;;;;3.27;2.27;;;;;;;;;;5032613;28;20491;-77
2021/09/21 12:06:20;;;;;;;2.80;2.40;;;;;;;;;;5032501;28;20417;-77
2021/09/21 12:08:46;;;;;;;3.90;2.90;;;;;;;;;;5032712;28;20408;-77
2021/09/21 12:11:15;;;;;;;2.57;2.33;;;;;;;;;;5032281;28;20413;-77
2021/09/21 12:13:41;;;;;;;5.17;2.73;;;;;;;;;;5032737;28;20397;-77
2021/09/21 12:16:08;;;;;;;4.17;2.00;;;;;;;;;;5032570;28;20413;-77
2021/09/21 12:18:35;;;;;;;3.93;2.80;;;;;;;;;;5032722;28;20400;-77
2021/09/21 12:21:04;;;;;;;2.10;1.90;;;;;;;;;;5032649;28;20397;-77
2021/09/21 12:23:31;;;;;;;5.10;2.53;;;;;;;;;;5034374;28;20471;-77
2021/09/21 12:25:58;;;;;;;3.10;2.10;;;;;;;;;;5036066;28;20405;-77
2021/09/21 12:28:28;;;;;;;7.50;2.63;;;;;;;;;;5035940;28;20404;-77
2021/09/21 12:30:55;;;;;;;3.77;2.10;;;;;;;;;;5036014;28;20405;-77
2021/09/21 12:33:21;;;;;;;3.00;2.60;;;;;;;;;;5035701;28;20463;-77
2021/09/21 12:35:48;;;;;;;4.50;2.27;;;;;;;;;;5035949;28;20401;-77
2021/09/21 12:38:16;;;;;;;3.20;2.17;;;;;;;;;;5035620;28;20452;-77
2021/09/21 12:40:49;;;;;;;3.80;2.70;;;;;;;;;;5035652;28;20513;-77
2021/09/21 12:43:20;;;;;;;3.17;2.37;;;;;;;;;;5035324;28;20402;-77
2021/09/21 12:45:46;;;;;;;2.60;2.00;;;;;;;;;;5035635;28;20388;-77
2021/09/21 12:48:12;;;;;;;2.53;2.10;;;;;;;;;;5035632;28;20413;-77
2021/09/21 12:50:39;;;;;;;3.13;2.83;;;;;;;;;;5035426;28;20980;-77
2021/09/21 12:53:06;;;;;;;4.00;2.23;;;;;;;;;;5035359;28;20433;-77
2021/09/21 12:55:33;;;;;;;2.27;2.03;;;;;;;;;;5035586;28;20467;-77
2021/09/21 12:58:00;;;;;;;2.70;2.13;;;;;;;;;;5035445;28;20456;-77
2021/09/21 13:00:33;;;;;;;2.33;2.13;;;;;;;;;;5035582;28;20405;-78
2021/09/21 13:02:59;;;;;;;2.70;2.20;;;;;;;;;;5035010;28;20420;-77
2021/09/21 13:05:25;;;;;;;2.33;1.80;;;;;;;;;;5035441;28;20483;-77
2021/09/21 13:07:51;;;;;;;2.97;2.20;;;;;;;;;;5035451;28;20878;-77
2021/09/21 13:10:17;;;;;;;3.47;2.23;;;;;;;;;;5035424;28;20444;-77
2021/09/21 13:12:43;;;;;;;4.63;2.10;;;;;;;;;;5034825;28;20428;-77
2021/09/21 13:15:09;;;;;;;2.77;2.20;;;;;;;;;;5017629;28;20420;-77
2021/09/21 13:17:35;;;;;;;2.40;2.20;;;;;;;;;;5035059;28;20504;-77
2021/09/21 13:20:01;;;;;;;2.43;2.23;;;;;;;;;;5035129;28;20405;-78
2021/09/21 13:22:28;;;;;;;2.90;2.10;;;;;;;;;;5016994;28;20880;-78
2021/09/21 13:24:54;;;;;;;2.50;2.30;;;;;;;;;;5034922;28;20912;-77
2021/09/21 13:27:20;;;;;;;3.67;2.67;;;;;;;;;;5035124;28;20416;-78
2021/09/21 13:29:46;;;;;;;3.67;2.10;;;;;;;;;;5035036;28;20467;-77
2021/09/21 13:32:13;;;;;;;3.33;2.00;;;;;;;;;;5034669;28;20495;-78
2021/09/21 13:34:39;;;;;;;2.97;2.50;;;;;;;;;;5034014;28;20416;-78
2021/09/21 13:37:05;;;;;;;3.30;2.10;;;;;;;;;;5034633;28;20468;-78
2021/09/21 13:39:31;;;;;;;2.77;2.50;;;;;;;;;;5034750;28;20467;-77
2021/09/21 13:41:57;;;;;;;3.40;2.43;;;;;;;;;;5016729;28;20511;-77
2021/09/21 13:44:23;;;;;;;2.80;2.47;;;;;;;;;;5016897;28;20459;-77
2021/09/21 13:46:49;;;;;;;2.70;2.50;;;;;;;;;;5016934;28;20440;-77
2021/09/21 13:49:16;;;;;;;4.80;2.20;;;;;;;;;;5034403;28;20422;-77
2021/09/21 13:51:42;;;;;;;3.40;2.20;;;;;;;;;;5034190;28;20444;-78
2021/09/21 13:54:08;;;;;;;2.30;1.93;;;;;;;;;;5034691;28;20752;-78
2021/09/21 13:56:34;;;;;;;2.47;1.63;;;;;;;;;;5017078;28;20438;-77
2021/09/21 13:59:01;;;;;;;1.93;1.77;;;;;;;;;;5034272;28;20897;-78
2021/09/21 14:01:27;;;;;;;2.57;2.03;;;;;;;;;;5034090;28;20440;-77
2021/09/21 14:03:53;;;;;;;3.10;2.10;;;;;;;;;;5034281;28;20405;-77
2021/09/21 14:06:19;;;;;;;3.70;2.13;;;;;;;;;;5034335;28;20420;-76
2021/09/21 14:08:45;;;;;;;4.43;2.10;;;;;;;;;;5016755;28;20448;-78
2021/09/21 14:11:11;;;;;;;3.43;2.17;;;;;;;;;;5033732;28;20464;-76
2021/09/21 14:13:37;;;;;;;2.40;1.80;;;;;;;;;;5034176;28;20886;-77
2021/09/21 14:16:03;;;;;;;2.60;2.13;;;;;;;;;;5016480;28;20457;-77
2021/09/21 14:18:29;;;;;;;2.07;1.97;;;;;;;;;;5034059;28;20489;-77
2021/09/21 14:20:56;;;;;;;5.83;2.60;;;;;;;;;;5033906;28;20948;-79
2021/09/21 14:23:22;;;;;;;5.47;2.90;;;;;;;;;;5033607;28;20511;-77
2021/09/21 14:25:48;;;;;;;2.10;1.90;;;;;;;;;;5033976;28;20817;-77
2021/09/21 14:28:16;;;;;;;2.93;2.40;;;;;;;;;;5033779;28;20449;-77
2021/09/21 14:30:42;;;;;;;3.80;2.07;;;;;;;;;;5033970;28;20420;-77
2021/09/21 14:33:08;;;;;;;2.53;2.33;;;;;;;;;;5015773;28;20792;-78
2021/09/21 14:35:34;;;;;;;2.23;1.73;;;;;;;;;;5033600;28;20460;-76
2021/09/21 14:38:00;;;;;;;2.10;1.83;;;;;;;;;;5033552;28;20510;-77
2021/09/21 14:40:26;;;;;;;2.60;2.23;;;;;;;;;;5016015;28;20421;-77
2021/09/21 14:42:53;;;;;;;2.50;2.30;;;;;;;;;;5033179;28;20944;-77
2021/09/21 14:45:19;;;;;;;2.33;1.50;;;;;;;;;;5033296;28;20897;-77
2021/09/21 14:47:46;;;;;;;3.03;2.30;;;;;;;;;;5033344;28;20409;-78
2021/09/21 14:50:13;;;;;;;3.03;2.20;;;;;;;;;;5013606;28;20437;-78
2021/09/21 14:52:39;;;;;;;3.37;2.40;;;;;;;;;;5029695;28;20464;-77